Red Lake, Texas
Current Conditions -  °F | °C
As of 11:35 AM on Wednesday 26 Nov 2014 (Local Time) from KPSN Reporting Station
Clear Clear  
Wind Chill: 18°   Ceiling: Unl
Heat Index: 18°   Visibility: 10mi
Dew Point: -1°   Wind: 10mph
Humidity: 29%   Direction: 260°W
Pressure: 30.19"   Gusts: 21mph
Location:  31.5818°N, 95.8921°W
Report Text: KPSN 261735Z AUTO 26009G18KT 10SM CLR 17/00 A3019 RMK AO2 T01761005
Loading
Personal Weather Stations






























Interactive Weather Map New forecast layout! Learn more

10-Day Weather Forecast

Advertisements
Track Severe Weather on mobile